createdAt,value
2019-04-26T00:00:27.199Z,101508.00
2019-04-26T00:01:04.960Z,101505.48
2019-04-26T00:01:42.629Z,101508.52
2019-04-26T00:02:36.259Z,101507.96
2019-04-26T00:03:26.020Z,101506.58
2019-04-26T00:04:02.328Z,101504.63
2019-04-26T00:04:38.478Z,101504.61
2019-04-26T00:05:14.657Z,101508.23
2019-04-26T00:05:50.916Z,101505.19
2019-04-26T00:06:26.967Z,101509.88
2019-04-26T00:07:03.012Z,101507.11
2019-04-26T00:07:39.197Z,101507.95
2019-04-26T00:08:15.831Z,101513.77
2019-04-26T00:08:56.178Z,101506.01
2019-04-26T00:09:40.030Z,101511.26
2019-04-26T00:10:29.293Z,101509.04
2019-04-26T00:11:08.147Z,101507.09
2019-04-26T00:11:47.151Z,101508.33
2019-04-26T00:12:39.992Z,101510.58
2019-04-26T00:13:32.898Z,101512.86
2019-04-26T00:14:19.611Z,101511.13
2019-04-26T00:15:00.095Z,101513.06
2019-04-26T00:15:54.400Z,101514.72
2019-04-26T00:16:34.916Z,101511.13
2019-04-26T00:17:13.624Z,101510.55
2019-04-26T00:17:52.572Z,101502.54
2019-04-26T00:18:28.615Z,101511.70
2019-04-26T00:19:04.663Z,101512.29
2019-04-26T00:19:41.925Z,101510.08
2019-04-26T00:20:19.112Z,101508.12
2019-04-26T00:20:55.321Z,101505.64
2019-04-26T00:21:31.641Z,101510.36
2019-04-26T00:22:08.011Z,101502.05
2019-04-26T00:22:44.319Z,101504.27
2019-04-26T00:23:20.366Z,101507.05
2019-04-26T00:23:56.406Z,101503.73
2019-04-26T00:24:32.718Z,101502.59
2019-04-26T00:25:08.795Z,101507.59
2019-04-26T00:25:47.842Z,101507.30
2019-04-26T00:26:23.940Z,101504.82
2019-04-26T00:27:00.037Z,101510.66
2019-04-26T00:27:36.049Z,101503.73
2019-04-26T00:28:12.839Z,101506.50
2019-04-26T00:28:49.882Z,101506.20
2019-04-26T00:29:25.997Z,101505.10
2019-04-26T00:30:02.270Z,101505.94
2019-04-26T00:30:38.625Z,101500.11
2019-04-26T00:31:15.811Z,101499.83
2019-04-26T00:31:51.982Z,101503.17
2019-04-26T00:32:28.079Z,101505.10
2019-04-26T00:33:04.204Z,101503.98
2019-04-26T00:33:40.297Z,101500.41
2019-04-26T00:34:17.469Z,101495.42
2019-04-26T00:34:53.671Z,101492.66
2019-04-26T00:35:29.770Z,101492.91
2019-04-26T00:36:05.861Z,101496.23
2019-04-26T00:36:42.028Z,101493.76
2019-04-26T00:37:18.138Z,101495.98
2019-04-26T00:37:54.176Z,101497.07
2019-04-26T00:38:30.273Z,101487.92
2019-04-26T00:39:06.890Z,101499.30
2019-04-26T00:39:43.089Z,101495.69
2019-04-26T00:40:20.261Z,101495.98
2019-04-26T00:40:56.529Z,101490.69
2019-04-26T00:41:32.632Z,101496.53
2019-04-26T00:42:08.717Z,101496.53
2019-04-26T00:42:44.817Z,101489.86
2019-04-26T00:43:20.857Z,101487.09
2019-04-26T00:43:56.965Z,101486.84
2019-04-26T00:44:33.080Z,101489.07
2019-04-26T00:45:09.125Z,101486.56
2019-04-26T00:45:45.274Z,101486.86
2019-04-26T00:46:21.430Z,101492.11
2019-04-26T00:46:57.449Z,101492.38
2019-04-26T00:47:33.546Z,101493.52
2019-04-26T00:48:10.029Z,101488.23
2019-04-26T00:48:46.062Z,101489.37
2019-04-26T00:49:22.092Z,101488.25
2019-04-26T00:49:58.487Z,101481.61
2019-04-26T00:50:35.665Z,101484.36
2019-04-26T00:51:12.790Z,101492.42
2019-04-26T00:51:49.505Z,101486.34
2019-04-26T00:52:25.673Z,101487.44
2019-04-26T00:53:01.767Z,101484.38
2019-04-26T00:53:37.868Z,101485.48
2019-04-26T00:54:14.176Z,101483.55
2019-04-26T00:54:50.546Z,101479.69
2019-04-26T00:55:26.540Z,101484.41
2019-04-26T00:56:02.561Z,101481.89
2019-04-26T00:56:38.747Z,101477.19
2019-04-26T00:57:15.969Z,101476.91
2019-04-26T00:57:52.075Z,101475.27
2019-04-26T00:58:28.321Z,101480.80
2019-04-26T00:59:04.926Z,101484.13
2019-04-26T00:59:40.930Z,101477.75
2019-04-26T01:00:18.188Z,101481.91
2019-04-26T01:00:55.426Z,101481.08
2019-04-26T01:01:33.078Z,101472.21
2019-04-26T01:02:10.750Z,101474.15
2019-04-26T01:02:48.587Z,101478.88
2019-04-26T01:03:25.028Z,101477.50
2019-04-26T01:04:01.233Z,101473.34
2019-04-26T01:04:37.273Z,101469.45
2019-04-26T01:05:13.319Z,101477.76
2019-04-26T01:05:59.590Z,101472.77
2019-04-26T01:06:28.899Z,101478.86
2019-04-26T01:07:04.988Z,101476.38
2019-04-26T01:07:42.288Z,101476.09
2019-04-26T01:08:19.214Z,101476.92
2019-04-26T01:08:55.337Z,101475.26
2019-04-26T01:09:31.398Z,101478.61
2019-04-26T01:10:07.469Z,101474.45
2019-04-26T01:10:43.512Z,101472.78
2019-04-26T01:11:19.772Z,101472.78
2019-04-26T01:11:55.831Z,101474.17
2019-04-26T01:12:32.830Z,101473.05
2019-04-26T01:13:08.851Z,101473.87
2019-04-26T01:13:44.909Z,101471.69
2019-04-26T01:14:21.990Z,101469.17
2019-04-26T01:14:58.211Z,101469.45
2019-04-26T01:15:34.306Z,101473.06
2019-04-26T01:16:10.438Z,101469.17
2019-04-26T01:16:46.476Z,101468.61
2019-04-26T01:17:22.561Z,101473.61
2019-04-26T01:17:58.644Z,101467.77
2019-04-26T01:18:34.687Z,101464.20
2019-04-26T01:19:10.732Z,101461.14
2019-04-26T01:19:46.779Z,101461.68
2019-04-26T01:20:22.976Z,101465.58
2019-04-26T01:20:59.304Z,101464.45
2019-04-26T01:21:38.607Z,101461.68
2019-04-26T01:22:19.085Z,101464.45
2019-04-26T01:22:54.787Z,101465.28
2019-04-26T01:23:30.549Z,101465.52
2019-04-26T01:24:06.598Z,101467.20
2019-04-26T01:24:42.793Z,101461.94
2019-04-26T01:25:40.241Z,101462.51
2019-04-26T01:26:23.184Z,101462.22
2019-04-26T01:26:59.735Z,101466.08
2019-04-26T01:27:35.929Z,101467.21
2019-04-26T01:28:18.089Z,101463.03
2019-04-26T01:28:59.368Z,101463.03
2019-04-26T01:29:35.685Z,101465.00
2019-04-26T01:30:11.889Z,101462.48
2019-04-26T01:30:48.030Z,101461.10
2019-04-26T01:31:24.232Z,101450.84
2019-04-26T01:32:09.544Z,101463.61
2019-04-26T01:32:45.558Z,101460.00
2019-04-26T01:33:21.959Z,101460.82
2019-04-26T01:33:58.015Z,101465.83
2019-04-26T01:34:34.045Z,101457.22
2019-04-26T01:35:10.104Z,101464.98
2019-04-26T01:35:46.129Z,101463.60
2019-04-26T01:36:22.301Z,101455.84
2019-04-26T01:36:58.369Z,101457.51
2019-04-26T01:37:34.393Z,101456.38
2019-04-26T01:38:13.149Z,101463.59
2019-04-26T01:38:49.186Z,101461.66
2019-04-26T01:39:25.808Z,101460.26
2019-04-26T01:40:05.810Z,101457.77
2019-04-26T01:40:42.620Z,101465.78
2019-04-26T01:41:40.946Z,101467.17
2019-04-26T01:42:22.319Z,101463.02
2019-04-26T01:43:08.928Z,101459.90
2019-04-26T01:44:01.695Z,101454.34
2019-04-26T01:44:45.223Z,101460.41
2019-04-26T01:45:29.019Z,101458.45
2019-04-26T01:46:15.783Z,101460.67
2019-04-26T01:46:52.231Z,101462.33
2019-04-26T01:47:28.452Z,101462.61
2019-04-26T01:48:09.381Z,101457.92
2019-04-26T01:48:51.186Z,101459.01
2019-04-26T01:49:28.234Z,101455.67
2019-04-26T01:50:05.634Z,101449.87
2019-04-26T01:50:41.650Z,101452.05
2019-04-26T01:51:30.056Z,101452.88
2019-04-26T01:52:10.550Z,101458.71
2019-04-26T01:52:46.688Z,101454.78
2019-04-26T01:53:24.613Z,101456.44
2019-04-26T01:54:00.722Z,101456.16
2019-04-26T01:54:39.766Z,101452.55
2019-04-26T01:55:15.812Z,101453.94
2019-04-26T01:55:52.002Z,101459.19
2019-04-26T01:56:31.485Z,101454.78
2019-04-26T01:57:07.575Z,101450.05
2019-04-26T01:57:43.692Z,101450.87
2019-04-26T01:58:19.734Z,101452.26
2019-04-26T01:58:57.057Z,101449.23
2019-04-26T01:59:33.168Z,101449.75
2019-04-26T02:00:19.491Z,101448.37
2019-04-26T02:00:58.237Z,101451.14
2019-04-26T02:01:39.050Z,101448.33
2019-04-26T02:02:25.737Z,101445.56
2019-04-26T02:03:07.197Z,101446.09
2019-04-26T02:03:43.242Z,101442.48
2019-04-26T02:04:19.353Z,101441.08
2019-04-26T02:04:57.041Z,101442.74
2019-04-26T02:05:33.087Z,101447.73
2019-04-26T02:06:09.140Z,101444.97
2019-04-26T02:06:45.170Z,101446.34
2019-04-26T02:07:39.799Z,101441.91
2019-04-26T02:08:16.237Z,101438.88
2019-04-26T02:08:52.269Z,101442.14
2019-04-26T02:09:28.435Z,101440.20
2019-04-26T02:10:09.974Z,101440.50
2019-04-26T02:10:45.995Z,101439.67
2019-04-26T02:11:23.531Z,101438.55
2019-04-26T02:12:02.685Z,101441.59
2019-04-26T02:12:38.779Z,101442.42
2019-04-26T02:13:14.827Z,101442.14
2019-04-26T02:13:50.930Z,101443.22
2019-04-26T02:14:26.996Z,101438.52
2019-04-26T02:15:03.396Z,101443.20
2019-04-26T02:15:39.425Z,101443.20
2019-04-26T02:16:15.455Z,101442.39
2019-04-26T02:16:51.476Z,101441.02
2019-04-26T02:17:27.499Z,101437.69
2019-04-26T02:18:03.554Z,101441.53
2019-04-26T02:18:39.664Z,101440.97
2019-04-26T02:19:15.696Z,101443.73
2019-04-26T02:19:51.704Z,101443.71
2019-04-26T02:20:47.668Z,101444.83
2019-04-26T02:21:26.398Z,101447.30
2019-04-26T02:22:16.326Z,101441.39
2019-04-26T02:22:59.522Z,101443.91
2019-04-26T02:23:52.242Z,101447.17
2019-04-26T02:24:30.154Z,101441.08
2019-04-26T02:25:06.526Z,101445.45
2019-04-26T02:25:42.654Z,101443.58
2019-04-26T02:26:35.126Z,101443.56
2019-04-26T02:27:12.909Z,101448.28
2019-04-26T02:27:48.942Z,101439.67
2019-04-26T02:28:26.663Z,101441.89
2019-04-26T02:29:13.409Z,101443.86
2019-04-26T02:29:49.570Z,101447.17
2019-04-26T02:30:27.213Z,101444.12
2019-04-26T02:31:03.447Z,101443.28
2019-04-26T02:31:39.472Z,101446.05
2019-04-26T02:32:15.519Z,101443.56
2019-04-26T02:32:51.562Z,101444.13
2019-04-26T02:33:29.655Z,101449.12
2019-04-26T02:34:05.767Z,101449.14
2019-04-26T02:34:41.856Z,101448.88
2019-04-26T02:35:17.894Z,101443.34
2019-04-26T02:35:53.937Z,101445.81
2019-04-26T02:36:47.921Z,101452.72
2019-04-26T02:37:08.694Z,101453.02
2019-04-26T02:37:44.718Z,101444.97
2019-04-26T02:38:20.753Z,101450.77
2019-04-26T02:38:56.806Z,101450.80
2019-04-26T02:39:38.529Z,101449.39
2019-04-26T02:40:15.795Z,101454.41
2019-04-26T02:40:51.884Z,101449.91
2019-04-26T02:41:31.086Z,101448.53
2019-04-26T02:42:11.556Z,101444.69
2019-04-26T02:42:47.597Z,101444.95
2019-04-26T02:43:23.736Z,101449.34
2019-04-26T02:44:02.111Z,101446.87
2019-04-26T02:44:44.681Z,101443.56
2019-04-26T02:45:44.025Z,101447.45
2019-04-26T02:46:32.506Z,101445.77
2019-04-26T02:47:45.037Z,101448.73
2019-04-26T02:48:23.672Z,101445.67
2019-04-26T02:49:08.776Z,101449.18
2019-04-26T02:49:47.457Z,101442.05
2019-04-26T02:50:25.314Z,101450.33
2019-04-26T02:51:07.960Z,101446.75
2019-04-26T02:52:14.431Z,101450.92
2019-04-26T02:52:53.727Z,101446.77
2019-04-26T02:53:50.816Z,101447.79
2019-04-26T02:54:47.705Z,101447.84
2019-04-26T02:55:47.815Z,101445.33
2019-04-26T02:56:31.765Z,101443.35
2019-04-26T02:57:08.102Z,101446.39
2019-04-26T02:57:47.407Z,101448.93
2019-04-26T02:58:23.645Z,101443.72
2019-04-26T02:59:03.046Z,101448.48
2019-04-26T02:59:40.965Z,101451.84
2019-04-26T03:00:20.401Z,101449.63
2019-04-26T03:00:57.673Z,101446.34
2019-04-26T03:01:35.985Z,101455.46
2019-04-26T03:02:15.015Z,101451.31
2019-04-26T03:02:53.962Z,101454.11
2019-04-26T03:03:31.668Z,101455.51
2019-04-26T03:04:07.783Z,101451.09
2019-04-26T03:04:43.828Z,101453.87
2019-04-26T03:05:19.872Z,101454.73
2019-04-26T03:05:55.998Z,101451.42
2019-04-26T03:06:34.259Z,101454.51
2019-04-26T03:07:13.027Z,101447.86
2019-04-26T03:07:54.830Z,101455.88
2019-04-26T03:08:31.906Z,101452.87
2019-04-26T03:09:08.693Z,101457.83
2019-04-26T03:09:44.785Z,101453.39
2019-04-26T03:10:22.545Z,101453.13
2019-04-26T03:11:01.844Z,101450.13
2019-04-26T03:11:50.174Z,101445.12
2019-04-26T03:12:32.009Z,101449.83
2019-04-26T03:13:08.461Z,101451.74
2019-04-26T03:13:58.586Z,101454.51
2019-04-26T03:14:42.165Z,101450.63
2019-04-26T03:15:39.410Z,101455.32
2019-04-26T03:16:23.699Z,101452.55
2019-04-26T03:17:03.265Z,101453.64
2019-04-26T03:17:50.025Z,101448.98
2019-04-26T03:18:31.705Z,101452.57
2019-04-26T03:19:19.021Z,101452.84
2019-04-26T03:20:02.833Z,101443.73
2019-04-26T03:20:42.261Z,101452.59
2019-04-26T03:21:25.520Z,101457.84
2019-04-26T03:22:16.529Z,101455.38
2019-04-26T03:23:13.808Z,101450.41
2019-04-26T03:23:59.028Z,101454.27
2019-04-26T03:24:56.621Z,101453.95
2019-04-26T03:25:47.693Z,101447.08
2019-04-26T03:26:35.171Z,101448.98
2019-04-26T03:27:43.369Z,101453.79
2019-04-26T03:28:25.153Z,101454.72
2019-04-26T03:29:16.533Z,101456.36
2019-04-26T03:30:20.743Z,101454.23
2019-04-26T03:31:05.533Z,101453.95
2019-04-26T03:31:54.354Z,101456.17
2019-04-26T03:32:54.262Z,101460.09
2019-04-26T03:33:49.123Z,101452.90
2019-04-26T03:34:23.487Z,101454.28
2019-04-26T03:35:40.380Z,101454.60
2019-04-26T03:36:33.970Z,101458.21
2019-04-26T03:37:27.023Z,101455.69
2019-04-26T03:38:16.543Z,101453.76
2019-04-26T03:39:12.922Z,101454.34
2019-04-26T03:40:11.642Z,101456.56
2019-04-26T03:41:12.966Z,101451.59
2019-04-26T03:42:05.179Z,101450.77
2019-04-26T03:42:56.328Z,101454.37
2019-04-26T03:43:59.615Z,101451.34
2019-04-26T03:44:50.905Z,101457.20
2019-04-26T03:45:50.822Z,101453.28
2019-04-26T03:46:37.003Z,101455.25
2019-04-26T03:47:16.135Z,101456.39
2019-04-26T03:48:28.444Z,101454.77
2019-04-26T03:49:25.609Z,101458.09
2019-04-26T03:50:04.878Z,101459.17
2019-04-26T03:50:58.907Z,101452.56
2019-04-26T03:51:53.242Z,101454.27
2019-04-26T03:52:42.160Z,101454.27
2019-04-26T03:53:22.416Z,101458.14
2019-04-26T03:54:04.975Z,101456.77
2019-04-26T03:54:41.125Z,101459.83
2019-04-26T03:55:28.073Z,101459.56
2019-04-26T03:56:19.689Z,101457.09
2019-04-26T03:57:03.261Z,101457.09
2019-04-26T03:57:47.108Z,101453.52
2019-04-26T03:58:28.914Z,101458.20
2019-04-26T03:59:27.635Z,101459.90
2019-04-26T04:00:24.771Z,101457.70
2019-04-26T04:01:05.329Z,101453.23
2019-04-26T04:01:46.637Z,101453.23
2019-04-26T04:02:37.382Z,101455.48
2019-04-26T04:03:35.426Z,101458.03
2019-04-26T04:04:29.297Z,101455.52
2019-04-26T04:05:24.404Z,101453.89
2019-04-26T04:06:01.609Z,101448.91
2019-04-26T04:06:56.722Z,101449.18
2019-04-26T04:07:15.909Z,101454.75
2019-04-26T04:07:52.515Z,101452.26
2019-04-26T04:08:38.354Z,101456.40
2019-04-26T04:09:17.936Z,101448.11
2019-04-26T04:10:01.970Z,101453.94
2019-04-26T04:10:43.237Z,101453.38
2019-04-26T04:11:22.134Z,101455.60
2019-04-26T04:12:18.863Z,101455.32
2019-04-26T04:12:58.368Z,101450.05
2019-04-26T04:13:44.402Z,101448.41
2019-04-26T04:14:28.086Z,101455.31
2019-04-26T04:15:10.024Z,101448.69
2019-04-26T04:15:49.600Z,101454.23
2019-04-26T04:16:52.779Z,101447.86
2019-04-26T04:17:38.777Z,101448.69
2019-04-26T04:18:19.204Z,101449.52
2019-04-26T04:19:07.605Z,101453.68
2019-04-26T04:20:12.540Z,101449.78
2019-04-26T04:21:08.788Z,101447.56
2019-04-26T04:21:57.332Z,101448.95
2019-04-26T04:22:41.308Z,101457.27
2019-04-26T04:23:35.220Z,101450.06
2019-04-26T04:24:13.112Z,101451.70
2019-04-26T04:25:07.082Z,101446.70
2019-04-26T04:25:52.077Z,101450.03
2019-04-26T04:27:04.198Z,101450.87
2019-04-26T04:27:45.145Z,101449.74
2019-04-26T04:28:44.559Z,101452.23
2019-04-26T04:29:42.144Z,101452.80
2019-04-26T04:30:23.565Z,101453.36
2019-04-26T04:31:14.431Z,101454.19
2019-04-26T04:31:59.469Z,101449.19
2019-04-26T04:33:02.571Z,101449.73
2019-04-26T04:33:43.591Z,101449.45
2019-04-26T04:34:45.499Z,101452.22
2019-04-26T04:35:22.093Z,101455.24
2019-04-26T04:36:01.029Z,101453.02
2019-04-26T04:36:45.878Z,101451.33
2019-04-26T04:37:20.749Z,101454.36
2019-04-26T04:38:08.527Z,101452.95
2019-04-26T04:38:53.499Z,101450.14
2019-04-26T04:40:00.656Z,101458.45
2019-04-26T04:41:15.755Z,101449.88
2019-04-26T04:42:33.946Z,101447.66
2019-04-26T04:43:20.859Z,101450.98
2019-04-26T04:44:35.699Z,101453.76
2019-04-26T04:45:31.375Z,101455.13
2019-04-26T04:46:49.778Z,101458.45
2019-04-26T04:47:34.417Z,101454.82
2019-04-26T04:48:18.012Z,101457.30
2019-04-26T04:49:18.223Z,101461.14
2019-04-26T04:50:01.957Z,101449.72
2019-04-26T04:50:44.805Z,101452.20
2019-04-26T04:51:42.843Z,101455.75
2019-04-26T04:52:31.739Z,101451.00
2019-04-26T04:53:32.949Z,101456.81
2019-04-26T04:54:23.169Z,101453.76
2019-04-26T04:55:07.943Z,101460.16
2019-04-26T04:55:55.020Z,101457.60
2019-04-26T04:56:43.627Z,101457.83
2019-04-26T04:57:22.960Z,101464.20
2019-04-26T04:58:02.257Z,101456.66
2019-04-26T04:58:46.313Z,101459.39
2019-04-26T04:59:28.613Z,101459.09
2019-04-26T05:00:11.833Z,101457.93
2019-04-26T05:01:26.832Z,101461.23
2019-04-26T05:02:33.063Z,101463.14
2019-04-26T05:03:37.750Z,101459.84
2019-04-26T05:04:28.566Z,101463.16
2019-04-26T05:05:26.859Z,101462.61
2019-04-26T05:06:34.656Z,101469.78
2019-04-26T05:07:23.669Z,101465.86
2019-04-26T05:08:17.076Z,101464.17
2019-04-26T05:09:06.639Z,101465.76
2019-04-26T05:09:51.910Z,101464.87
2019-04-26T05:10:34.191Z,101461.44
2019-04-26T05:11:19.309Z,101466.11
2019-04-26T05:12:04.487Z,101466.60
2019-04-26T05:12:49.998Z,101468.79
2019-04-26T05:13:43.605Z,101467.89
2019-04-26T05:14:40.257Z,101468.65
2019-04-26T05:15:38.830Z,101472.25
2019-04-26T05:16:28.224Z,101472.17
2019-04-26T05:17:26.677Z,101468.50
2019-04-26T05:18:05.008Z,101471.52
2019-04-26T05:19:26.961Z,101463.92
2019-04-26T05:20:15.065Z,101470.75
2019-04-26T05:21:00.040Z,101473.84
2019-04-26T05:21:39.335Z,101471.78
2019-04-26T05:22:33.328Z,101469.16
2019-04-26T05:23:44.651Z,101471.02
2019-04-26T05:24:30.988Z,101468.73
2019-04-26T05:25:17.642Z,101467.53
2019-04-26T05:26:29.896Z,101462.64
2019-04-26T05:27:29.930Z,101465.61
2019-04-26T05:28:15.744Z,101461.93
2019-04-26T05:29:38.895Z,101462.91
2019-04-26T05:30:30.843Z,101461.94
2019-04-26T05:31:28.924Z,101457.06
2019-04-26T05:32:33.759Z,101463.55
2019-04-26T05:33:15.998Z,101458.34
2019-04-26T05:34:16.182Z,101457.31
2019-04-26T05:35:42.005Z,101454.02
2019-04-26T05:36:21.288Z,101453.88
2019-04-26T05:37:00.661Z,101461.18
2019-04-26T05:37:53.051Z,101457.90
2019-04-26T05:39:03.392Z,101460.48
2019-04-26T05:39:57.719Z,101462.25
2019-04-26T05:40:45.519Z,101468.09
2019-04-26T05:41:59.158Z,101462.56
2019-04-26T05:43:08.042Z,101457.55
2019-04-26T05:44:10.675Z,101459.69
2019-04-26T05:45:07.339Z,101465.91
2019-04-26T05:46:12.097Z,101459.33
2019-04-26T05:47:10.677Z,101460.09
2019-04-26T05:48:11.893Z,101457.44
2019-04-26T05:49:14.863Z,101457.05
2019-04-26T05:50:07.466Z,101454.12
2019-04-26T05:51:21.127Z,101456.50
2019-04-26T05:52:25.939Z,101457.22
2019-04-26T05:53:09.582Z,101465.35
2019-04-26T05:54:11.180Z,101458.70
2019-04-26T05:55:20.230Z,101456.42
2019-04-26T05:56:24.840Z,101455.25
2019-04-26T05:57:05.637Z,101454.63
2019-04-26T05:57:47.064Z,101452.00
2019-04-26T05:58:46.772Z,101456.27
2019-04-26T05:59:31.671Z,101450.65
2019-04-26T06:00:23.540Z,101457.41
2019-04-26T06:01:07.230Z,101458.25
2019-04-26T06:02:03.088Z,101458.29
2019-04-26T06:02:47.012Z,101458.83
2019-04-26T06:03:39.462Z,101454.98
2019-04-26T06:04:48.674Z,101459.77
2019-04-26T06:05:46.585Z,101453.98
2019-04-26T06:06:30.460Z,101459.19
2019-04-26T06:07:25.786Z,101457.86
2019-04-26T06:08:30.643Z,101461.45
2019-04-26T06:09:13.970Z,101461.09
2019-04-26T06:10:21.778Z,101454.86
2019-04-26T06:11:05.479Z,101458.02
2019-04-26T06:12:05.593Z,101457.05
2019-04-26T06:13:11.104Z,101457.89
2019-04-26T06:14:03.366Z,101461.94
2019-04-26T06:15:08.237Z,101453.69
2019-04-26T06:16:12.788Z,101459.70
2019-04-26T06:17:09.821Z,101454.47
2019-04-26T06:18:13.649Z,101461.30
2019-04-26T06:19:25.966Z,101459.88
2019-04-26T06:20:23.662Z,101464.02
2019-04-26T06:21:19.044Z,101465.42
2019-04-26T06:22:16.260Z,101460.58
2019-04-26T06:23:02.092Z,101453.86
2019-04-26T06:23:40.669Z,101453.86
2019-04-26T06:24:37.833Z,101461.48
2019-04-26T06:25:27.541Z,101464.66
2019-04-26T06:26:29.061Z,101457.17
2019-04-26T06:27:24.894Z,101455.08
2019-04-26T06:28:03.344Z,101455.08
2019-04-26T06:28:54.725Z,101452.34
2019-04-26T06:29:45.805Z,101454.58
2019-04-26T06:30:23.666Z,101453.72
2019-04-26T06:31:03.481Z,101448.03
2019-04-26T06:31:45.045Z,101447.41
2019-04-26T06:32:27.347Z,101456.85
2019-04-26T06:33:15.397Z,101448.08
2019-04-26T06:34:20.061Z,101447.58
2019-04-26T06:35:07.928Z,101451.56
2019-04-26T06:35:45.602Z,101446.70
2019-04-26T06:36:23.549Z,101452.67
2019-04-26T06:37:24.933Z,101446.41
2019-04-26T06:38:03.984Z,101449.39
2019-04-26T06:39:14.586Z,101453.12
2019-04-26T06:39:59.961Z,101451.22
2019-04-26T06:40:58.219Z,101443.94
2019-04-26T06:42:05.066Z,101446.86
2019-04-26T06:42:54.769Z,101441.98
2019-04-26T06:43:34.738Z,101449.23
2019-04-26T06:44:24.040Z,101442.09
2019-04-26T06:45:26.267Z,101444.16
2019-04-26T06:46:09.958Z,101446.69
2019-04-26T06:47:04.785Z,101444.86
2019-04-26T06:47:48.630Z,101441.94
2019-04-26T06:48:41.436Z,101450.65
2019-04-26T06:49:53.697Z,101441.16
2019-04-26T06:51:01.304Z,101439.09
2019-04-26T06:51:40.702Z,101438.67
2019-04-26T06:52:20.151Z,101434.61
2019-04-26T06:53:20.467Z,101441.39
2019-04-26T06:54:00.650Z,101441.95
2019-04-26T06:54:45.659Z,101442.36
2019-04-26T06:55:23.546Z,101443.06
2019-04-26T06:56:16.442Z,101437.84
2019-04-26T06:57:08.861Z,101440.73
2019-04-26T06:58:04.905Z,101440.50
2019-04-26T06:58:59.265Z,101434.83
2019-04-26T06:59:59.196Z,101431.59
2019-04-26T07:00:47.582Z,101435.73
2019-04-26T07:01:41.681Z,101438.77
2019-04-26T07:02:23.944Z,101436.69
2019-04-26T07:03:21.241Z,101432.03
2019-04-26T07:04:19.741Z,101434.54
2019-04-26T07:05:09.455Z,101430.47
2019-04-26T07:05:46.127Z,101432.28
2019-04-26T07:06:34.759Z,101436.27
2019-04-26T07:07:20.732Z,101435.67
2019-04-26T07:08:03.420Z,101433.47
2019-04-26T07:08:57.669Z,101438.45
2019-04-26T07:09:45.683Z,101435.38
2019-04-26T07:10:27.799Z,101437.63
2019-04-26T07:11:24.884Z,101432.52
2019-04-26T07:12:26.469Z,101430.08
2019-04-26T07:13:23.545Z,101431.98
2019-04-26T07:14:37.040Z,101435.24
2019-04-26T07:15:31.495Z,101435.67
2019-04-26T07:16:27.156Z,101439.30
2019-04-26T07:17:09.320Z,101441.60
2019-04-26T07:18:04.372Z,101437.25
2019-04-26T07:19:08.227Z,101436.64
2019-04-26T07:20:16.154Z,101434.84
2019-04-26T07:21:17.676Z,101435.15
2019-04-26T07:22:16.374Z,101439.71
2019-04-26T07:23:18.874Z,101433.79
2019-04-26T07:24:16.258Z,101432.22
2019-04-26T07:25:09.029Z,101431.49
2019-04-26T07:26:06.365Z,101430.67
2019-04-26T07:27:05.313Z,101431.32
2019-04-26T07:28:03.177Z,101432.73
2019-04-26T07:29:06.884Z,101427.63
2019-04-26T07:29:58.544Z,101432.33
2019-04-26T07:30:55.882Z,101433.53
2019-04-26T07:31:40.768Z,101428.22
2019-04-26T07:32:35.077Z,101431.04
2019-04-26T07:33:14.069Z,101437.56
2019-04-26T07:34:26.229Z,101438.41
2019-04-26T07:35:15.768Z,101431.44
2019-04-26T07:36:12.047Z,101432.78
2019-04-26T07:36:57.037Z,101439.12
2019-04-26T07:37:45.498Z,101439.33
2019-04-26T07:38:26.518Z,101437.98
2019-04-26T07:39:25.040Z,101433.51
2019-04-26T07:40:11.894Z,101436.55
2019-04-26T07:41:22.790Z,101435.17
2019-04-26T07:42:21.527Z,101438.65
2019-04-26T07:43:26.192Z,101442.88
2019-04-26T07:44:27.910Z,101437.80
2019-04-26T07:45:08.842Z,101437.05
2019-04-26T07:45:50.119Z,101431.17
2019-04-26T07:46:29.652Z,101440.06
2019-04-26T07:47:15.342Z,101437.01
2019-04-26T07:48:18.624Z,101433.94
2019-04-26T07:49:18.709Z,101436.19
2019-04-26T07:50:32.355Z,101433.30
2019-04-26T07:51:44.527Z,101430.06
2019-04-26T07:52:44.065Z,101421.45
2019-04-26T07:53:32.280Z,101433.27
2019-04-26T07:54:37.098Z,101430.91
2019-04-26T07:55:40.797Z,101430.91
2019-04-26T07:56:32.164Z,101429.68
2019-04-26T07:57:45.864Z,101433.42
2019-04-26T07:58:57.865Z,101424.25
2019-04-26T07:59:37.222Z,101430.73
2019-04-26T08:00:44.209Z,101418.52
2019-04-26T08:01:52.077Z,101425.28
2019-04-26T08:02:44.411Z,101422.73
2019-04-26T08:03:30.712Z,101426.39
2019-04-26T08:04:11.542Z,101428.44
2019-04-26T08:05:04.276Z,101424.47
2019-04-26T08:05:48.367Z,101424.48
2019-04-26T08:06:29.906Z,101431.13
2019-04-26T08:07:10.294Z,101421.78
2019-04-26T08:07:48.786Z,101427.53
2019-04-26T08:08:27.930Z,101418.76
2019-04-26T08:09:07.514Z,101427.22
2019-04-26T08:09:59.512Z,101421.91
2019-04-26T08:10:26.352Z,101423.15
2019-04-26T08:11:17.070Z,101424.97
2019-04-26T08:12:07.972Z,101422.59
2019-04-26T08:12:48.421Z,101419.20
2019-04-26T08:13:24.523Z,101421.41
2019-04-26T08:14:15.645Z,101417.94
2019-04-26T08:14:59.515Z,101418.40
2019-04-26T08:15:47.732Z,101424.16
2019-04-26T08:16:35.139Z,101428.75
2019-04-26T08:17:20.819Z,101421.70
2019-04-26T08:18:06.671Z,101420.72
2019-04-26T08:18:50.642Z,101420.27
2019-04-26T08:19:27.399Z,101418.02
2019-04-26T08:20:15.448Z,101425.05
2019-04-26T08:20:53.162Z,101421.77
2019-04-26T08:21:33.857Z,101423.25
2019-04-26T08:22:18.477Z,101426.70
2019-04-26T08:22:49.102Z,101423.56
2019-04-26T08:23:41.079Z,101423.96
2019-04-26T08:24:21.474Z,101422.30
2019-04-26T08:24:58.099Z,101419.52
2019-04-26T08:25:33.862Z,101418.78
2019-04-26T08:26:13.415Z,101417.40
2019-04-26T08:26:52.789Z,101421.35
2019-04-26T08:27:29.164Z,101425.45
2019-04-26T08:28:07.259Z,101432.95
2019-04-26T08:28:44.079Z,101426.97
2019-04-26T08:29:20.474Z,101422.41
2019-04-26T08:29:58.693Z,101425.64
2019-04-26T08:30:34.817Z,101423.27
2019-04-26T08:31:15.513Z,101420.25
2019-04-26T08:31:53.642Z,101422.38
2019-04-26T08:32:32.162Z,101420.13
2019-04-26T08:33:11.980Z,101423.05
2019-04-26T08:33:48.767Z,101416.95
2019-04-26T08:34:28.877Z,101419.42
2019-04-26T08:35:15.479Z,101413.72
2019-04-26T08:35:48.995Z,101407.94
2019-04-26T08:36:27.174Z,101414.10
2019-04-26T08:37:04.418Z,101411.72
2019-04-26T08:37:42.135Z,101409.09
2019-04-26T08:38:22.406Z,101409.31
2019-04-26T08:38:57.146Z,101404.08
2019-04-26T08:39:45.023Z,101409.72
2019-04-26T08:40:16.438Z,101408.50
2019-04-26T08:40:49.147Z,101404.54
2019-04-26T08:41:25.174Z,101396.53